Archival Weather

Norman Y Mineta San Jose Intl

San Jose, California (KSJC)

Report from: Thursday, February 22, 2024 8:53 PM PST
Current time: Friday, June 14, 2024 4:34 AM PDT

Current weather – Weather history – Daily summaries
Weather forecast

Temperature13.9°C (57.0°F)
Dew point7.8°C (46.0°F)
Winds 3 kts (1.5 m/s, 3.5 mph) South-Southwest (200°)
Visibility10 mi. (16.1 km)
Clouds Sky clear
Altimeter30.22 in.Hg (1023 mB)
Relative humidity67 %
Density altitude-320 ft. (-98 m)
Sea-level pressure102.3 kPa (1023 mB, 30.22 in.Hg)
Remarks Automated weather observing station with precipitation discriminator
Flight conditions Visual Meteorological Conditions
Raw dataKSJC 230453Z 20003KT 10SM CLR 14/08 A3022 RMK AO2 SLP234 T01390078
An error has occurred. This application may no longer respond until reloaded. Reload 🗙